createdAt,value
2022-08-07T00:01:43.170Z,24.58
2022-08-07T00:03:53.238Z,24.47
2022-08-07T00:06:29.462Z,24.49
2022-08-07T00:09:17.134Z,24.65
2022-08-07T00:11:55.521Z,24.39
2022-08-07T00:14:25.326Z,24.05
2022-08-07T00:16:52.625Z,23.84
2022-08-07T00:19:21.393Z,23.93
2022-08-07T00:21:55.970Z,24.13
2022-08-07T00:24:24.158Z,24.23
2022-08-07T00:27:06.498Z,24.05
2022-08-07T00:29:37.149Z,23.73
2022-08-07T00:32:05.981Z,23.66
2022-08-07T00:34:35.364Z,23.66
2022-08-07T00:37:02.473Z,23.60
2022-08-07T00:39:32.073Z,23.76
2022-08-07T00:42:02.158Z,23.66
2022-08-07T00:44:33.022Z,23.60
2022-08-07T00:47:00.470Z,23.57
2022-08-07T00:50:20.813Z,23.54
2022-08-07T00:52:14.775Z,23.52
2022-08-07T00:54:46.440Z,23.57
2022-08-07T00:57:13.898Z,23.26
2022-08-07T00:59:41.381Z,23.29
2022-08-07T01:02:13.925Z,23.27
2022-08-07T01:04:56.905Z,23.17
2022-08-07T01:07:27.531Z,23.19
2022-08-07T01:10:06.897Z,23.18
2022-08-07T01:12:53.553Z,23.36
2022-08-07T01:16:00.470Z,23.19
2022-08-07T01:18:10.214Z,23.10
2022-08-07T01:20:57.444Z,23.07
2022-08-07T01:23:36.739Z,23.05
2022-08-07T01:26:07.942Z,23.09
2022-08-07T01:28:46.282Z,23.15
2022-08-07T01:31:19.824Z,23.12
2022-08-07T01:33:47.713Z,23.01
2022-08-07T01:36:33.455Z,22.75
2022-08-07T01:39:01.290Z,22.56
2022-08-07T01:41:31.252Z,22.29
2022-08-07T01:43:59.288Z,22.10
2022-08-07T01:46:28.418Z,22.28
2022-08-07T01:48:59.802Z,22.62
2022-08-07T01:52:02.706Z,22.55
2022-08-07T01:54:32.629Z,22.40
2022-08-07T01:57:24.104Z,22.31
2022-08-07T02:00:01.583Z,22.30
2022-08-07T02:03:12.441Z,22.30
2022-08-07T02:05:48.267Z,22.60
2022-08-07T02:08:24.143Z,22.49
2022-08-07T02:10:55.239Z,22.23
2022-08-07T02:14:00.690Z,22.23
2022-08-07T02:16:16.089Z,22.13
2022-08-07T02:18:46.807Z,22.08
2022-08-07T02:21:16.223Z,22.09
2022-08-07T02:23:45.085Z,22.14
2022-08-07T02:26:32.760Z,22.14
2022-08-07T02:29:02.389Z,22.14
2022-08-07T02:31:32.762Z,22.08
2022-08-07T02:34:10.868Z,22.15
2022-08-07T02:36:41.288Z,22.43
2022-08-07T02:39:16.034Z,22.09
2022-08-07T02:41:50.684Z,21.93
2022-08-07T02:44:23.815Z,21.93
2022-08-07T02:46:55.674Z,22.01
2022-08-07T02:49:29.125Z,22.04
2022-08-07T02:52:21.391Z,22.13
2022-08-07T02:54:50.648Z,22.00
2022-08-07T02:57:22.241Z,21.90
2022-08-07T03:00:00.808Z,21.73
2022-08-07T03:02:28.499Z,21.84
2022-08-07T03:04:56.649Z,21.86
2022-08-07T03:08:05.250Z,21.83
2022-08-07T03:10:11.800Z,21.70
2022-08-07T03:12:42.054Z,21.72
2022-08-07T03:15:10.905Z,21.66
2022-08-07T03:17:53.692Z,21.86
2022-08-07T03:20:21.862Z,21.74
2022-08-07T03:22:50.560Z,21.69
2022-08-07T03:25:21.082Z,21.70
2022-08-07T03:27:59.767Z,21.76
2022-08-07T03:30:37.505Z,21.81
2022-08-07T03:33:05.193Z,21.94
2022-08-07T03:35:43.847Z,22.03
2022-08-07T03:38:21.092Z,22.23
2022-08-07T03:40:57.733Z,22.13
2022-08-07T03:43:26.576Z,22.54
2022-08-07T03:45:53.707Z,22.51
2022-08-07T03:48:20.933Z,22.64
2022-08-07T03:50:55.923Z,22.97
2022-08-07T03:54:00.586Z,22.94
2022-08-07T03:56:14.905Z,23.01
2022-08-07T03:59:08.794Z,23.05
2022-08-07T04:01:30.217Z,23.23
2022-08-07T04:03:59.981Z,23.20
2022-08-07T04:06:37.045Z,23.25
2022-08-07T04:09:05.923Z,23.26
2022-08-07T04:12:23.693Z,23.39
2022-08-07T04:14:38.484Z,23.46
2022-08-07T04:17:20.376Z,23.53
2022-08-07T04:19:56.049Z,23.57
2022-08-07T04:22:27.633Z,23.53
2022-08-07T04:24:58.836Z,23.63
2022-08-07T04:27:28.491Z,23.79
2022-08-07T04:30:04.443Z,23.71
2022-08-07T04:32:37.757Z,23.62
2022-08-07T04:35:07.246Z,23.66
2022-08-07T04:37:40.465Z,23.69
2022-08-07T04:40:29.699Z,23.71
2022-08-07T04:43:02.124Z,23.61
2022-08-07T04:45:57.491Z,23.52
2022-08-07T04:49:01.568Z,23.44
2022-08-07T04:51:51.131Z,23.28
2022-08-07T04:54:22.881Z,23.36
2022-08-07T04:58:12.544Z,23.42
2022-08-07T05:00:18.750Z,23.47
2022-08-07T05:02:58.983Z,23.51
2022-08-07T05:05:53.842Z,23.63
2022-08-07T05:08:45.765Z,23.64
2022-08-07T05:11:27.881Z,23.68
2022-08-07T05:14:51.886Z,23.87
2022-08-07T05:17:11.871Z,23.99
2022-08-07T05:19:45.317Z,24.04
2022-08-07T05:22:26.500Z,24.15
2022-08-07T05:24:57.255Z,24.49
2022-08-07T05:28:02.997Z,24.38
2022-08-07T05:30:16.669Z,24.68
2022-08-07T05:32:59.793Z,24.63
2022-08-07T05:35:33.215Z,24.41
2022-08-07T05:38:08.572Z,24.47
2022-08-07T05:40:38.150Z,24.55
2022-08-07T05:43:18.717Z,24.50
2022-08-07T05:45:48.388Z,24.66
2022-08-07T05:48:15.631Z,24.83
2022-08-07T05:50:44.499Z,25.03
2022-08-07T05:54:13.413Z,25.20
2022-08-07T05:56:01.822Z,25.25
2022-08-07T05:58:36.533Z,25.21
2022-08-07T06:01:06.006Z,25.31
2022-08-07T06:03:53.235Z,25.25
2022-08-07T06:06:29.996Z,25.29
2022-08-07T06:09:04.408Z,25.23
2022-08-07T06:11:33.354Z,25.38
2022-08-07T06:14:13.213Z,25.46
2022-08-07T06:16:50.279Z,25.56
2022-08-07T06:19:52.025Z,25.67
2022-08-07T06:22:14.426Z,25.73
2022-08-07T06:24:57.756Z,25.67
2022-08-07T06:27:44.490Z,25.52
2022-08-07T06:30:31.800Z,25.45
2022-08-07T06:32:59.452Z,25.63
2022-08-07T06:35:39.043Z,25.59
2022-08-07T06:38:20.552Z,25.70
2022-08-07T06:40:50.859Z,25.57
2022-08-07T06:43:22.192Z,25.58
2022-08-07T06:45:49.916Z,25.95
2022-08-07T06:48:24.879Z,26.73
2022-08-07T06:50:54.935Z,27.45
2022-08-07T06:55:27.766Z,27.87
2022-08-07T06:56:15.364Z,28.45
2022-08-07T07:00:11.473Z,29.14
2022-08-07T07:01:43.996Z,29.91
2022-08-07T07:04:32.737Z,30.41
2022-08-07T07:07:10.517Z,30.80
2022-08-07T07:09:48.217Z,30.92
2022-08-07T07:12:38.311Z,31.00
2022-08-07T07:15:26.257Z,31.42
2022-08-07T07:17:58.111Z,31.90
2022-08-07T07:20:36.229Z,32.22
2022-08-07T07:24:10.937Z,32.31
2022-08-07T07:26:35.524Z,32.68
2022-08-07T07:29:39.390Z,32.70
2022-08-07T07:31:44.445Z,32.86
2022-08-07T07:34:19.770Z,33.29
2022-08-07T07:36:52.716Z,32.95
2022-08-07T07:39:25.705Z,33.16
2022-08-07T07:42:13.342Z,32.93
2022-08-07T07:44:49.375Z,33.27
2022-08-07T07:47:23.636Z,33.38
2022-08-07T07:50:36.178Z,33.26
2022-08-07T07:52:41.727Z,33.60
2022-08-07T07:55:10.928Z,33.42
2022-08-07T07:57:51.655Z,33.06
2022-08-07T08:00:29.230Z,33.41
2022-08-07T08:03:16.567Z,33.80
2022-08-07T08:05:53.922Z,34.02
2022-08-07T08:08:35.238Z,33.90
2022-08-07T08:11:06.029Z,33.81
2022-08-07T08:13:53.050Z,33.74
2022-08-07T08:16:24.972Z,33.38
2022-08-07T08:18:55.091Z,33.29
2022-08-07T08:22:02.637Z,33.00
2022-08-07T08:24:57.153Z,33.02
2022-08-07T08:27:39.000Z,32.71
2022-08-07T08:30:17.295Z,32.73
2022-08-07T08:32:53.667Z,32.60
2022-08-07T08:38:41.188Z,32.89
2022-08-07T08:41:57.705Z,32.92
2022-08-07T08:44:29.275Z,32.97
2022-08-07T08:47:09.910Z,33.09
2022-08-07T08:50:05.714Z,33.12
2022-08-07T08:52:40.766Z,33.10
2022-08-07T08:55:54.784Z,33.18
2022-08-07T08:58:50.706Z,33.05
2022-08-07T09:01:40.212Z,33.17
2022-08-07T09:04:35.136Z,33.00
2022-08-07T09:07:24.460Z,33.02
2022-08-07T09:09:56.749Z,33.15
2022-08-07T09:12:32.885Z,33.45
2022-08-07T09:16:23.531Z,33.56
2022-08-07T09:18:20.591Z,33.24
2022-08-07T09:21:58.320Z,33.32
2022-08-07T09:27:59.614Z,33.28
2022-08-07T09:30:40.632Z,32.71
2022-08-07T09:33:41.324Z,32.60
2022-08-07T09:36:22.861Z,32.77
2022-08-07T09:53:22.574Z,33.04
2022-08-07T09:56:03.084Z,33.27
2022-08-07T09:59:14.587Z,33.41
2022-08-07T10:02:35.011Z,33.34
2022-08-07T10:05:17.430Z,33.38
2022-08-07T10:07:54.989Z,33.29
2022-08-07T10:11:16.387Z,33.18
2022-08-07T10:14:11.159Z,33.26
2022-08-07T10:16:59.505Z,33.17
2022-08-07T10:19:55.150Z,33.31
2022-08-07T10:22:46.640Z,33.47
2022-08-07T10:25:42.481Z,33.51
2022-08-07T10:28:31.855Z,33.45
2022-08-07T10:31:58.011Z,33.33
2022-08-07T10:35:08.942Z,33.34
2022-08-07T10:38:00.963Z,33.52
2022-08-07T10:40:34.185Z,33.54
2022-08-07T10:43:34.713Z,33.59
2022-08-07T10:46:09.608Z,33.34
2022-08-07T10:49:03.942Z,33.32
2022-08-07T10:52:02.339Z,33.16
2022-08-07T10:55:01.374Z,33.05
2022-08-07T10:57:58.536Z,32.78
2022-08-07T11:00:39.652Z,32.40
2022-08-07T11:03:37.774Z,32.36
2022-08-07T11:06:26.875Z,32.33
2022-08-07T11:09:11.211Z,32.49
2022-08-07T11:11:53.696Z,32.69
2022-08-07T11:14:44.915Z,32.74
2022-08-07T11:17:56.746Z,32.75
2022-08-07T11:20:47.183Z,32.86
2022-08-07T11:23:30.224Z,33.00
2022-08-07T11:26:09.121Z,33.16
2022-08-07T11:28:53.316Z,33.00
2022-08-07T11:31:30.495Z,33.22
2022-08-07T11:34:16.349Z,32.99
2022-08-07T11:37:02.763Z,32.71
2022-08-07T11:41:18.187Z,32.62
2022-08-07T11:44:17.124Z,32.60
2022-08-07T11:47:38.594Z,32.42
2022-08-07T11:50:32.195Z,32.46
2022-08-07T11:53:08.353Z,32.53
2022-08-07T11:56:09.664Z,32.43
2022-08-07T11:58:49.741Z,32.50
2022-08-07T12:01:59.083Z,32.35
2022-08-07T12:04:43.021Z,32.46
2022-08-07T12:07:27.325Z,32.28
2022-08-07T12:10:05.771Z,32.33
2022-08-07T12:13:11.592Z,32.40
2022-08-07T12:16:06.741Z,32.31
2022-08-07T12:18:45.710Z,32.41
2022-08-07T12:22:35.876Z,32.37
2022-08-07T12:24:38.045Z,32.43
2022-08-07T12:27:16.745Z,32.71
2022-08-07T12:29:51.855Z,32.67
2022-08-07T12:32:34.732Z,32.49
2022-08-07T12:35:08.443Z,32.87
2022-08-07T12:38:11.258Z,32.93
2022-08-07T12:40:47.269Z,33.07
2022-08-07T12:44:01.820Z,32.83
2022-08-07T12:46:32.571Z,32.59
2022-08-07T12:49:25.810Z,32.46
2022-08-07T12:52:17.881Z,32.35
2022-08-07T12:55:00.192Z,32.03
2022-08-07T12:58:00.380Z,31.68
2022-08-07T13:00:35.851Z,31.23
2022-08-07T13:03:26.874Z,31.17
2022-08-07T13:06:29.739Z,30.79
2022-08-07T13:09:33.392Z,30.71
2022-08-07T13:12:28.976Z,30.48
2022-08-07T13:15:32.527Z,30.37
2022-08-07T13:18:26.043Z,30.25
2022-08-07T13:21:02.783Z,30.17
2022-08-07T13:24:01.469Z,30.10
2022-08-07T13:26:56.049Z,29.85
2022-08-07T13:29:42.551Z,29.56
2022-08-07T13:32:42.230Z,29.50
2022-08-07T13:35:24.049Z,29.31
2022-08-07T13:38:13.365Z,29.06
2022-08-07T13:40:58.099Z,29.16
2022-08-07T13:43:27.672Z,29.00
2022-08-07T13:46:20.839Z,29.03
2022-08-07T13:48:51.985Z,28.97
2022-08-07T13:51:28.050Z,29.04
2022-08-07T13:54:16.581Z,29.15
2022-08-07T13:56:51.755Z,29.47
2022-08-07T13:59:30.619Z,29.10
2022-08-07T14:02:08.719Z,28.91
2022-08-07T14:04:50.233Z,28.99
2022-08-07T14:07:27.425Z,29.04
2022-08-07T14:10:12.538Z,29.22
2022-08-07T14:13:00.473Z,29.09
2022-08-07T14:15:39.709Z,29.35
2022-08-07T14:18:29.351Z,29.33
2022-08-07T14:21:21.081Z,29.33
2022-08-07T14:24:03.655Z,29.42
2022-08-07T14:28:09.478Z,29.31
2022-08-07T14:30:05.723Z,29.28
2022-08-07T14:32:46.104Z,29.53
2022-08-07T14:35:45.827Z,29.62
2022-08-07T14:38:09.132Z,29.68
2022-08-07T14:41:14.683Z,29.71
2022-08-07T14:44:08.126Z,29.79
2022-08-07T14:46:51.721Z,29.58
2022-08-07T14:49:57.115Z,29.72
2022-08-07T14:52:10.989Z,29.93
2022-08-07T14:54:42.222Z,29.86
2022-08-07T14:57:18.683Z,29.82
2022-08-07T15:00:04.675Z,30.02
2022-08-07T15:02:34.541Z,29.95
2022-08-07T15:05:02.648Z,30.08
2022-08-07T15:07:47.533Z,30.22
2022-08-07T15:10:26.499Z,30.21
2022-08-07T15:13:00.086Z,30.36
2022-08-07T15:15:39.501Z,30.24
2022-08-07T15:21:44.138Z,30.43
2022-08-07T15:25:13.104Z,30.43
2022-08-07T15:26:55.869Z,30.42
2022-08-07T15:30:06.580Z,30.33
2022-08-07T15:32:13.246Z,30.21
2022-08-07T15:34:56.966Z,30.14
2022-08-07T15:38:04.730Z,30.26
2022-08-07T15:55:18.458Z,30.09
2022-08-07T15:57:53.036Z,30.13
2022-08-07T16:00:34.138Z,29.86
2022-08-07T16:03:21.362Z,29.62
2022-08-07T16:05:57.354Z,29.79
2022-08-07T16:08:31.704Z,29.75
2022-08-07T16:11:26.944Z,29.50
2022-08-07T16:14:04.330Z,29.49
2022-08-07T16:16:43.225Z,29.46
2022-08-07T16:19:59.582Z,29.18
2022-08-07T16:22:55.827Z,29.19
2022-08-07T16:25:54.740Z,29.05
2022-08-07T16:30:07.389Z,28.92
2022-08-07T16:31:51.589Z,28.99
2022-08-07T16:34:48.345Z,28.78
2022-08-07T16:38:06.404Z,28.76
2022-08-07T16:40:37.009Z,28.97
2022-08-07T16:44:02.398Z,28.75
2022-08-07T16:47:16.391Z,28.90
2022-08-07T16:50:36.247Z,28.74
2022-08-07T16:54:02.413Z,28.79
2022-08-07T16:56:20.630Z,28.83
2022-08-07T16:59:11.190Z,28.58
2022-08-07T17:02:04.925Z,28.70
2022-08-07T17:04:50.908Z,28.65
2022-08-07T17:07:51.487Z,28.69
2022-08-07T17:10:32.230Z,28.57
2022-08-07T17:13:40.376Z,28.47
2022-08-07T17:16:24.947Z,28.58
2022-08-07T17:18:51.666Z,28.30
2022-08-07T17:21:24.635Z,28.21
2022-08-07T17:24:37.361Z,28.23
2022-08-07T17:27:19.591Z,28.04
2022-08-07T17:30:15.025Z,28.19
2022-08-07T17:34:08.791Z,28.04
2022-08-07T17:36:02.994Z,28.09
2022-08-07T17:38:39.631Z,27.90
2022-08-07T17:42:01.943Z,27.83
2022-08-07T17:44:49.922Z,27.98
2022-08-07T17:47:55.186Z,27.68
2022-08-07T17:50:49.202Z,27.62
2022-08-07T17:53:59.882Z,27.75
2022-08-07T17:56:28.485Z,27.72
2022-08-07T17:58:56.982Z,27.66
2022-08-07T18:01:36.551Z,27.61
2022-08-07T18:04:24.557Z,27.59
2022-08-07T18:07:21.026Z,27.52
2022-08-07T18:10:07.133Z,27.52
2022-08-07T18:13:11.624Z,27.43
2022-08-07T18:16:00.450Z,27.62
2022-08-07T18:21:03.562Z,27.54
2022-08-07T18:22:03.642Z,27.49
2022-08-07T18:24:51.497Z,27.60
2022-08-07T18:27:49.243Z,27.36
2022-08-07T18:30:31.661Z,27.24
2022-08-07T18:33:32.031Z,27.27
2022-08-07T18:36:35.666Z,27.47
2022-08-07T18:40:05.808Z,27.35
2022-08-07T18:42:29.259Z,27.13
2022-08-07T18:45:42.853Z,26.97
2022-08-07T18:48:08.208Z,27.15
2022-08-07T18:50:49.152Z,27.10
2022-08-07T18:53:46.346Z,26.93
2022-08-07T18:56:40.019Z,26.78
2022-08-07T18:59:59.515Z,26.73
2022-08-07T19:03:11.682Z,26.85
2022-08-07T19:06:16.900Z,26.35
2022-08-07T19:08:46.602Z,26.27
2022-08-07T19:11:37.341Z,26.26
2022-08-07T19:14:17.095Z,26.48
2022-08-07T19:17:05.933Z,26.36
2022-08-07T19:19:48.814Z,26.23
2022-08-07T19:22:31.238Z,26.43
2022-08-07T19:25:05.790Z,26.33
2022-08-07T19:28:57.515Z,26.36
2022-08-07T19:31:06.292Z,26.38
2022-08-07T19:33:18.751Z,26.32
2022-08-07T19:36:01.119Z,26.16
2022-08-07T19:38:32.213Z,26.12
2022-08-07T19:41:02.585Z,26.05
2022-08-07T19:43:48.697Z,26.01
2022-08-07T19:46:26.328Z,26.03
2022-08-07T19:49:02.986Z,25.98
2022-08-07T19:51:52.953Z,26.13
2022-08-07T19:54:31.939Z,26.12
2022-08-07T19:57:59.984Z,26.12
2022-08-07T20:00:02.163Z,26.24
2022-08-07T20:02:39.185Z,26.31
2022-08-07T20:05:08.710Z,26.38
2022-08-07T20:07:47.747Z,26.24
2022-08-07T20:10:37.815Z,26.25
2022-08-07T20:13:23.816Z,26.16
2022-08-07T20:15:57.886Z,26.35
2022-08-07T20:18:33.808Z,26.57
2022-08-07T20:21:03.930Z,26.35
2022-08-07T20:24:00.983Z,26.07
2022-08-07T20:26:45.090Z,26.48
2022-08-07T20:29:48.647Z,26.20
2022-08-07T20:32:05.729Z,26.21
2022-08-07T20:34:54.554Z,26.32
2022-08-07T20:37:29.397Z,26.43
2022-08-07T20:40:02.677Z,26.59
2022-08-07T20:42:31.891Z,26.41
2022-08-07T20:45:01.194Z,26.47
2022-08-07T20:47:56.013Z,26.28
2022-08-07T20:50:22.339Z,26.07
2022-08-07T20:52:51.863Z,25.79
2022-08-07T20:55:23.683Z,25.61
2022-08-07T20:58:03.446Z,25.65
2022-08-07T21:00:42.785Z,25.53
2022-08-07T21:03:14.129Z,25.56
2022-08-07T21:05:55.904Z,25.73
2022-08-07T21:08:34.989Z,25.87
2022-08-07T21:11:05.298Z,25.87
2022-08-07T21:13:44.055Z,25.93
2022-08-07T21:16:37.765Z,26.13
2022-08-07T21:19:32.087Z,25.99
2022-08-07T21:22:16.470Z,26.16
2022-08-07T21:25:17.883Z,26.10
2022-08-07T21:28:02.120Z,26.18
2022-08-07T21:31:31.402Z,26.08
2022-08-07T21:34:48.556Z,26.09
2022-08-07T21:37:58.095Z,25.90
2022-08-07T21:40:41.402Z,26.10
2022-08-07T21:43:17.284Z,26.15
2022-08-07T21:46:09.033Z,26.11
2022-08-07T21:48:58.833Z,26.02
2022-08-07T21:51:54.526Z,25.92
2022-08-07T21:54:33.590Z,25.82
2022-08-07T21:57:05.982Z,25.81
2022-08-07T22:00:04.947Z,25.79
2022-08-07T22:03:05.704Z,25.70
2022-08-07T22:05:44.430Z,25.60
2022-08-07T22:08:18.815Z,25.45
2022-08-07T22:10:50.291Z,25.54
2022-08-07T22:13:17.309Z,25.44
2022-08-07T22:16:38.995Z,25.46
2022-08-07T22:19:18.043Z,25.45
2022-08-07T22:22:10.815Z,25.34
2022-08-07T22:25:08.345Z,25.08
2022-08-07T22:28:06.359Z,24.98
2022-08-07T22:30:59.676Z,24.98
2022-08-07T22:33:53.210Z,24.85
2022-08-07T22:36:47.698Z,24.87
2022-08-07T22:39:52.798Z,24.86
2022-08-07T22:42:53.784Z,24.95
2022-08-07T22:46:04.308Z,24.89
2022-08-07T22:48:56.172Z,24.91
2022-08-07T22:51:36.595Z,24.84
2022-08-07T22:54:49.232Z,24.62
2022-08-07T22:57:37.599Z,24.48
2022-08-07T23:00:29.084Z,24.53
2022-08-07T23:03:23.865Z,24.55
2022-08-07T23:06:08.648Z,24.57
2022-08-07T23:10:00.827Z,24.55
2022-08-07T23:11:59.345Z,24.44
2022-08-07T23:14:50.062Z,24.37
2022-08-07T23:17:32.802Z,24.46
2022-08-07T23:20:51.675Z,24.45
2022-08-07T23:24:04.384Z,24.19
2022-08-07T23:26:39.957Z,24.05
2022-08-07T23:30:36.012Z,24.20
2022-08-07T23:34:21.642Z,24.16
2022-08-07T23:35:23.938Z,24.22
2022-08-07T23:38:01.517Z,24.13
2022-08-07T23:40:39.686Z,24.13
2022-08-07T23:43:37.702Z,24.18
2022-08-07T23:46:30.894Z,24.18
2022-08-07T23:49:50.067Z,24.19
2022-08-07T23:52:58.451Z,24.14
2022-08-07T23:55:53.826Z,24.13
2022-08-07T23:58:43.316Z,24.02
